createdAt,value
2016-12-13T00:00:26.685Z,-2.34
2016-12-13T00:01:26.700Z,-2.29
2016-12-13T00:02:11.802Z,-2.29
2016-12-13T00:03:11.800Z,-2.2
2016-12-13T00:04:11.818Z,-2.16
2016-12-13T00:05:11.832Z,-2.26
2016-12-13T00:07:11.860Z,-2.42
2016-12-13T00:08:11.872Z,-2.37
2016-12-13T00:09:11.935Z,-2.37
2016-12-13T00:10:11.897Z,-2.3
2016-12-13T00:11:11.913Z,-2.37
2016-12-13T00:12:11.922Z,-2.37
2016-12-13T00:13:11.939Z,-2.16
2016-12-13T00:14:11.955Z,-2.27
2016-12-13T00:15:26.883Z,-2.27
2016-12-13T00:16:11.975Z,-2.2
2016-12-13T00:17:11.996Z,-2.15
2016-12-13T00:18:12.007Z,-2.18
2016-12-13T00:19:12.019Z,-2.18
2016-12-13T00:20:12.031Z,-2.26
2016-12-13T00:21:12.074Z,-2.39
2016-12-13T00:22:12.058Z,-2.4
2016-12-13T00:23:12.074Z,-2.3
2016-12-13T00:24:12.083Z,-2.42
2016-12-13T00:25:12.098Z,-2.35
2016-12-13T00:26:12.108Z,-2.35
2016-12-13T00:27:27.043Z,-2.21
2016-12-13T00:28:27.056Z,-2.1
2016-12-13T00:29:12.143Z,-2.1
2016-12-13T00:30:27.085Z,-2.1
2016-12-13T00:31:27.094Z,-2.23
2016-12-13T00:32:12.202Z,-2.24
2016-12-13T00:33:12.203Z,-2.23
2016-12-13T00:34:12.215Z,-2.2
2016-12-13T00:35:12.281Z,-2.16
2016-12-13T00:36:12.239Z,-2.2
2016-12-13T00:37:12.255Z,-1.98
2016-12-13T00:38:12.263Z,-2.16
2016-12-13T00:39:12.281Z,-2.29
2016-12-13T00:40:12.287Z,-2.24
2016-12-13T00:41:12.306Z,-2.39
2016-12-13T00:42:12.320Z,-2.21
2016-12-13T00:43:12.331Z,-2.13
2016-12-13T00:45:12.359Z,-2.21
2016-12-13T00:46:27.293Z,-2.21
2016-12-13T00:47:12.387Z,-2.23
2016-12-13T00:48:12.395Z,-2.24
2016-12-13T00:49:12.403Z,-2.34
2016-12-13T00:50:12.423Z,-2.16
2016-12-13T00:51:12.437Z,-2.18
2016-12-13T00:52:12.450Z,-2.21
2016-12-13T00:53:12.522Z,-2.13
2016-12-13T00:54:12.477Z,-2.26
2016-12-13T00:55:12.486Z,-2.16
2016-12-13T00:56:12.501Z,-2.1
2016-12-13T00:57:12.512Z,-2.23
2016-12-13T00:58:12.525Z,-2.24
2016-12-13T00:59:12.539Z,-2.2
2016-12-13T01:00:12.556Z,-2.21
2016-12-13T01:01:12.571Z,-2.39
2016-12-13T01:02:27.497Z,-2.45
2016-12-13T01:03:12.594Z,-2.4
2016-12-13T01:05:12.621Z,-2.39
2016-12-13T01:06:12.630Z,-2.34
2016-12-13T01:07:12.654Z,-2.27
2016-12-13T01:08:12.655Z,-2.35
2016-12-13T01:09:12.679Z,-2.35
2016-12-13T01:12:12.712Z,-2.55
2016-12-13T01:13:12.723Z,-2.61
2016-12-13T01:14:12.742Z,-2.6
2016-12-13T01:15:12.744Z,-2.58
2016-12-13T01:16:12.773Z,-2.7
2016-12-13T01:17:12.775Z,-2.7
2016-12-13T01:18:27.713Z,-2.68
2016-12-13T01:19:27.719Z,-2.71
2016-12-13T01:20:12.816Z,-2.71
2016-12-13T01:21:12.832Z,-2.85
2016-12-13T01:22:12.838Z,-2.89
2016-12-13T01:23:12.855Z,-2.84
2016-12-13T01:24:12.864Z,-2.81
2016-12-13T01:25:12.883Z,-2.74
2016-12-13T01:26:12.889Z,-2.7
2016-12-13T01:27:12.902Z,-2.66
2016-12-13T01:28:12.922Z,-2.61
2016-12-13T01:29:12.925Z,-2.63
2016-12-13T01:30:12.938Z,-2.66
2016-12-13T01:31:13.006Z,-2.66
2016-12-13T01:32:12.975Z,-2.68
2016-12-13T01:33:27.902Z,-2.64
2016-12-13T01:34:13.004Z,-2.68
2016-12-13T01:35:13.008Z,-2.7
2016-12-13T01:36:13.024Z,-2.7
2016-12-13T01:37:13.034Z,-2.7
2016-12-13T01:38:13.046Z,-2.66
2016-12-13T01:39:13.059Z,-2.58
2016-12-13T01:40:13.072Z,-2.6
2016-12-13T01:41:13.088Z,-2.56
2016-12-13T01:42:13.101Z,-2.46
2016-12-13T01:43:13.111Z,-2.4
2016-12-13T01:44:13.126Z,-2.4
2016-12-13T01:45:13.137Z,-2.39
2016-12-13T01:46:13.148Z,-2.39
2016-12-13T01:47:13.162Z,-2.4
2016-12-13T01:48:13.176Z,-2.39
2016-12-13T01:49:13.193Z,-2.39
2016-12-13T01:50:13.206Z,-2.39
2016-12-13T01:52:13.234Z,-2.27
2016-12-13T01:53:13.238Z,-2.18
2016-12-13T01:54:13.256Z,-2.32
2016-12-13T01:55:13.272Z,-2.29
2016-12-13T01:56:13.285Z,-2.3
2016-12-13T01:57:13.294Z,-2.2
2016-12-13T01:58:13.305Z,-2.26
2016-12-13T01:59:13.373Z,-2.3
2016-12-13T02:00:13.335Z,-2.37
2016-12-13T02:01:13.350Z,-2.45
2016-12-13T02:04:13.378Z,-2.66
2016-12-13T02:05:28.373Z,-2.68
2016-12-13T02:06:13.420Z,-2.64
2016-12-13T02:07:13.424Z,-2.68
2016-12-13T02:08:13.483Z,-2.71
2016-12-13T02:09:13.446Z,-2.73
2016-12-13T02:10:13.462Z,-2.7
2016-12-13T02:11:13.479Z,-2.63
2016-12-13T02:12:13.490Z,-2.67
2016-12-13T02:13:13.501Z,-2.56
2016-12-13T02:14:13.515Z,-2.56
2016-12-13T02:15:13.524Z,-2.6
2016-12-13T02:16:13.539Z,-2.7
2016-12-13T02:17:13.556Z,-2.71
2016-12-13T02:18:13.560Z,-2.78
2016-12-13T02:19:13.578Z,-2.68
2016-12-13T02:20:13.591Z,-2.68
2016-12-13T02:21:28.526Z,-2.67
2016-12-13T02:22:13.622Z,-2.58
2016-12-13T02:23:13.631Z,-2.67
2016-12-13T02:24:13.640Z,-2.71
2016-12-13T02:25:13.655Z,-2.58
2016-12-13T02:26:13.669Z,-2.67
2016-12-13T02:28:13.695Z,-2.49
2016-12-13T02:29:13.706Z,-2.45
2016-12-13T02:30:13.713Z,-2.52
2016-12-13T02:31:13.735Z,-2.35
2016-12-13T02:32:13.802Z,-2.49
2016-12-13T02:33:13.756Z,-2.68
2016-12-13T02:34:13.769Z,-2.82
2016-12-13T02:35:13.782Z,-2.81
2016-12-13T02:37:28.729Z,-2.88
2016-12-13T02:38:13.822Z,-2.81
2016-12-13T02:39:13.835Z,-2.67
2016-12-13T02:40:13.853Z,-2.66
2016-12-13T02:41:13.855Z,-2.66
2016-12-13T02:42:13.927Z,-2.63
2016-12-13T02:43:13.884Z,-2.63
2016-12-13T02:44:13.902Z,-2.68
2016-12-13T02:45:13.907Z,-2.5
2016-12-13T02:46:13.921Z,-2.52
2016-12-13T02:47:13.942Z,-2.49
2016-12-13T02:48:13.949Z,-2.52
2016-12-13T02:49:13.966Z,-2.42
2016-12-13T02:50:13.971Z,-2.35
2016-12-13T02:52:28.923Z,-2.26
2016-12-13T02:53:28.933Z,-2.34
2016-12-13T02:54:14.030Z,-2.27
2016-12-13T02:55:14.037Z,-2.23
2016-12-13T02:56:14.054Z,-2.16
2016-12-13T02:57:14.067Z,-2.27
2016-12-13T02:58:14.080Z,-2.34
2016-12-13T02:59:14.093Z,-2.39
2016-12-13T03:00:14.251Z,-2.49
2016-12-13T03:01:14.119Z,-2.52
2016-12-13T03:02:14.424Z,-2.37
2016-12-13T03:03:14.135Z,-2.6
2016-12-13T03:04:14.162Z,-2.53
2016-12-13T03:05:14.170Z,-2.6
2016-12-13T03:06:29.104Z,-2.71
2016-12-13T03:07:14.193Z,-2.74
2016-12-13T03:08:29.178Z,-2.73
2016-12-13T03:09:14.223Z,-2.78
2016-12-13T03:10:29.149Z,-2.79
2016-12-13T03:11:14.249Z,-2.77
2016-12-13T03:13:14.269Z,-2.64
2016-12-13T03:14:14.280Z,-2.7
2016-12-13T03:15:14.298Z,-2.63
2016-12-13T03:16:14.314Z,-2.6
2016-12-13T03:17:14.315Z,-2.66
2016-12-13T03:18:14.338Z,-2.82
2016-12-13T03:19:14.345Z,-2.78
2016-12-13T03:20:14.358Z,-2.94
2016-12-13T03:22:14.383Z,-2.89
2016-12-13T03:23:14.404Z,-2.89
2016-12-13T03:24:14.412Z,-2.85
2016-12-13T03:25:14.427Z,-2.91
2016-12-13T03:26:14.439Z,-2.89
2016-12-13T03:27:14.449Z,-2.85
2016-12-13T03:28:14.464Z,-2.88
2016-12-13T03:29:14.477Z,-2.91
2016-12-13T03:30:14.792Z,-2.79
2016-12-13T03:31:14.500Z,-2.66
2016-12-13T03:32:14.517Z,-2.64
2016-12-13T03:33:14.523Z,-2.48
2016-12-13T03:34:14.533Z,-2.48
2016-12-13T03:35:29.525Z,-2.53
2016-12-13T03:36:14.571Z,-2.6
2016-12-13T03:37:29.498Z,-2.52
2016-12-13T03:38:29.513Z,-2.37
2016-12-13T03:39:14.602Z,-2.5
2016-12-13T03:40:29.533Z,-2.34
2016-12-13T03:41:29.545Z,-2.39
2016-12-13T03:42:14.643Z,-2.34
2016-12-13T03:43:14.649Z,-2.39
2016-12-13T03:44:14.666Z,-2.49
2016-12-13T03:45:14.679Z,-2.39
2016-12-13T03:46:14.695Z,-2.3
2016-12-13T03:47:14.700Z,-2.23
2016-12-13T03:48:14.717Z,-2.15
2016-12-13T03:49:14.732Z,-2.21
2016-12-13T03:50:29.669Z,-2.24
2016-12-13T03:51:14.808Z,-2.16
2016-12-13T03:52:14.771Z,-2.15
2016-12-13T03:53:29.702Z,-2.09
2016-12-13T03:54:14.789Z,-2.08
2016-12-13T03:55:14.812Z,-2.03
2016-12-13T03:56:29.739Z,-1.95
2016-12-13T03:57:14.831Z,-1.91
2016-12-13T03:58:14.844Z,-1.91
2016-12-13T03:59:14.854Z,-1.79
2016-12-13T04:00:14.869Z,-1.84
2016-12-13T04:01:14.883Z,-1.82
2016-12-13T04:02:14.892Z,-1.74
2016-12-13T04:03:14.907Z,-1.7
2016-12-13T04:04:14.924Z,-1.7
2016-12-13T04:05:14.930Z,-1.76
2016-12-13T04:06:14.946Z,-1.72
2016-12-13T04:07:14.956Z,-1.69
2016-12-13T04:08:14.977Z,-1.61
2016-12-13T04:10:15.000Z,-1.46
2016-12-13T04:11:15.006Z,-1.52
2016-12-13T04:12:29.942Z,-1.55
2016-12-13T04:13:29.955Z,-1.54
2016-12-13T04:14:15.051Z,-1.51
2016-12-13T04:15:15.065Z,-1.4
2016-12-13T04:16:15.076Z,-1.43
2016-12-13T04:17:15.085Z,-1.45
2016-12-13T04:18:15.103Z,-1.41
2016-12-13T04:19:15.117Z,-1.4
2016-12-13T04:20:15.126Z,-1.3
2016-12-13T04:21:15.146Z,-1.37
2016-12-13T04:22:15.151Z,-1.31
2016-12-13T04:23:15.168Z,-1.3
2016-12-13T04:24:15.179Z,-1.25
2016-12-13T04:25:15.198Z,-1.19
2016-12-13T04:26:30.127Z,-1.19
2016-12-13T04:27:30.142Z,-1.15
2016-12-13T04:28:30.158Z,-1.13
2016-12-13T04:29:15.246Z,-1.13
2016-12-13T04:30:15.259Z,-1.19
2016-12-13T04:31:15.270Z,-1.13
2016-12-13T04:32:15.312Z,-1.17
2016-12-13T04:33:15.299Z,-1.1
2016-12-13T04:34:15.316Z,-1.15
2016-12-13T04:35:15.327Z,-1.01
2016-12-13T04:36:15.339Z,-1.01
2016-12-13T04:37:15.352Z,-1.02
2016-12-13T04:38:15.359Z,-0.97
2016-12-13T04:39:15.376Z,-0.98
2016-12-13T04:40:15.391Z,-1.04
2016-12-13T04:41:15.406Z,-0.99
2016-12-13T04:42:15.721Z,-0.95
2016-12-13T04:43:30.354Z,-1.12
2016-12-13T04:44:15.445Z,-1.01
2016-12-13T04:45:30.379Z,-0.99
2016-12-13T04:46:15.477Z,-0.92
2016-12-13T04:47:15.487Z,-1.07
2016-12-13T04:48:15.496Z,-1.09
2016-12-13T04:49:15.516Z,-1.05
2016-12-13T04:50:15.525Z,-1.12
2016-12-13T04:51:15.540Z,-0.95
2016-12-13T04:52:15.546Z,-0.91
2016-12-13T04:53:15.575Z,-0.98
2016-12-13T04:54:15.576Z,-0.95
2016-12-13T04:55:15.593Z,-0.94
2016-12-13T04:56:15.655Z,-0.92
2016-12-13T04:57:15.625Z,-0.92
2016-12-13T04:58:15.638Z,-0.91
2016-12-13T05:00:15.657Z,-0.79
2016-12-13T05:02:15.684Z,-0.86
2016-12-13T05:03:15.702Z,-0.86
2016-12-13T05:05:15.731Z,-0.85
2016-12-13T05:06:15.742Z,-0.8
2016-12-13T05:07:15.757Z,-0.89
2016-12-13T05:08:15.772Z,-0.85
2016-12-13T05:09:15.782Z,-0.82
2016-12-13T05:10:15.799Z,-0.82
2016-12-13T05:11:15.808Z,-0.8
2016-12-13T05:12:15.825Z,-0.98
2016-12-13T05:13:15.865Z,-0.94
2016-12-13T05:14:15.850Z,-0.89
2016-12-13T05:15:30.785Z,-0.91
2016-12-13T05:16:30.792Z,-0.95
2016-12-13T05:18:15.910Z,-0.97
2016-12-13T05:19:15.917Z,-0.91
2016-12-13T05:20:30.876Z,-0.89
2016-12-13T05:21:15.945Z,-0.91
2016-12-13T05:22:15.957Z,-0.98
2016-12-13T05:23:15.971Z,-1.01
2016-12-13T05:24:15.984Z,-0.98
2016-12-13T05:25:16.002Z,-1.01
2016-12-13T05:27:16.044Z,-0.89
2016-12-13T05:28:16.032Z,-0.89
2016-12-13T05:29:16.047Z,-0.85
2016-12-13T05:30:16.067Z,-0.82
2016-12-13T05:31:30.999Z,-0.92
2016-12-13T05:32:16.090Z,-0.85
2016-12-13T05:33:31.024Z,-0.83
2016-12-13T05:34:16.125Z,-0.78
2016-12-13T05:35:16.128Z,-0.69
2016-12-13T05:36:16.139Z,-0.78
2016-12-13T05:37:16.156Z,-0.69
2016-12-13T05:38:16.174Z,-0.76
2016-12-13T05:39:16.183Z,-0.8
2016-12-13T05:40:16.192Z,-0.82
2016-12-13T05:41:16.215Z,-0.69
2016-12-13T05:42:16.524Z,-0.8
2016-12-13T05:43:16.245Z,-0.8
2016-12-13T05:44:16.556Z,-0.8
2016-12-13T05:45:16.270Z,-0.83
2016-12-13T05:46:16.276Z,-0.83
2016-12-13T05:47:31.218Z,-0.82
2016-12-13T05:48:16.307Z,-0.79
2016-12-13T05:49:16.324Z,-0.82
2016-12-13T05:50:16.339Z,-0.64
2016-12-13T05:51:16.348Z,-0.72
2016-12-13T05:53:16.379Z,-0.65
2016-12-13T05:54:16.386Z,-0.65
2016-12-13T05:55:16.402Z,-0.72
2016-12-13T05:56:16.416Z,-0.7
2016-12-13T05:57:16.427Z,-0.73
2016-12-13T05:58:16.443Z,-0.57
2016-12-13T05:59:16.458Z,-0.61
2016-12-13T06:00:31.393Z,-0.51
2016-12-13T06:01:16.491Z,-0.51
2016-12-13T06:03:31.435Z,-0.54
2016-12-13T06:04:16.525Z,-0.52
2016-12-13T06:05:16.532Z,-0.62
2016-12-13T06:06:16.559Z,-0.61
2016-12-13T06:07:16.570Z,-0.69
2016-12-13T06:08:16.583Z,-0.61
2016-12-13T06:09:16.588Z,-0.55
2016-12-13T06:10:16.663Z,-0.52
2016-12-13T06:11:16.619Z,-0.57
2016-12-13T06:12:16.634Z,-0.55
2016-12-13T06:13:16.645Z,-0.52
2016-12-13T06:14:16.719Z,-0.43
2016-12-13T06:15:16.674Z,-0.52
2016-12-13T06:16:16.686Z,-0.49
2016-12-13T06:17:16.703Z,-0.43
2016-12-13T06:18:31.638Z,-0.43
2016-12-13T06:19:16.728Z,-0.4
2016-12-13T06:20:16.746Z,-0.39
2016-12-13T06:21:16.759Z,-0.44
2016-12-13T06:22:16.824Z,-0.42
2016-12-13T06:23:16.789Z,-0.39
2016-12-13T06:24:17.103Z,-0.46
2016-12-13T06:25:16.820Z,-0.31
2016-12-13T06:26:16.831Z,-0.33
2016-12-13T06:27:16.840Z,-0.4
2016-12-13T06:28:16.856Z,-0.36
2016-12-13T06:29:16.866Z,-0.34
2016-12-13T06:30:16.880Z,-0.37
2016-12-13T06:31:16.896Z,-0.36
2016-12-13T06:32:16.911Z,-0.37
2016-12-13T06:33:16.928Z,-0.34
2016-12-13T06:34:16.931Z,-0.47
2016-12-13T06:35:17.000Z,-0.54
2016-12-13T06:36:16.965Z,-0.65
2016-12-13T06:37:17.013Z,-0.62
2016-12-13T06:38:17.293Z,-0.6
2016-12-13T06:39:17.003Z,-0.65
2016-12-13T06:40:17.027Z,-0.57
2016-12-13T06:41:17.039Z,-0.57
2016-12-13T06:42:17.051Z,-0.51
2016-12-13T06:43:17.365Z,-0.43
2016-12-13T06:44:17.375Z,-0.31
2016-12-13T06:45:17.089Z,-0.33
2016-12-13T06:46:17.097Z,-0.36
2016-12-13T06:47:32.039Z,-0.28
2016-12-13T06:48:17.133Z,-0.29
2016-12-13T06:49:17.143Z,-0.37
2016-12-13T06:50:32.077Z,-0.34
2016-12-13T06:52:17.183Z,-0.29
2016-12-13T06:53:17.203Z,-0.36
2016-12-13T06:54:17.215Z,-0.26
2016-12-13T06:55:17.223Z,-0.28
2016-12-13T06:56:17.245Z,-0.34
2016-12-13T06:57:17.256Z,-0.33
2016-12-13T06:58:17.579Z,-0.23
2016-12-13T06:59:17.285Z,-0.26
2016-12-13T07:00:17.293Z,-0.19
2016-12-13T07:01:17.309Z,-0.16
2016-12-13T07:02:17.322Z,-0.16
2016-12-13T07:03:32.260Z,-0.16
2016-12-13T07:04:17.351Z,-0.28
2016-12-13T07:06:32.301Z,-0.31
2016-12-13T07:07:17.396Z,-0.19
2016-12-13T07:08:17.400Z,-0.33
2016-12-13T07:09:17.423Z,-0.11
2016-12-13T07:10:17.433Z,-0.1
2016-12-13T07:11:17.455Z,-0.08
2016-12-13T07:12:17.464Z,-0.25
2016-12-13T07:13:17.477Z,-0.28
2016-12-13T07:14:17.491Z,-0.21
2016-12-13T07:15:17.507Z,-0.18
2016-12-13T07:16:17.523Z,-0.16
2016-12-13T07:17:17.534Z,-0.11
2016-12-13T07:18:17.544Z,-0.11
2016-12-13T07:19:17.565Z,0.07
2016-12-13T07:20:17.575Z,-0.05
2016-12-13T07:21:17.588Z,-0.18
2016-12-13T07:22:32.525Z,0
2016-12-13T07:23:17.616Z,-0.01
2016-12-13T07:24:17.629Z,-0.03
2016-12-13T07:25:17.644Z,0.03
2016-12-13T07:26:17.665Z,0.02
2016-12-13T07:27:17.674Z,0.13
2016-12-13T07:28:32.617Z,0.02
2016-12-13T07:29:17.700Z,0.07
2016-12-13T07:31:17.728Z,-0.03
2016-12-13T07:32:17.743Z,0.03
2016-12-13T07:33:17.753Z,0
2016-12-13T07:34:17.770Z,0.03
2016-12-13T07:35:17.781Z,0.04
2016-12-13T07:36:17.808Z,0.11
2016-12-13T07:37:32.735Z,0.14
2016-12-13T07:38:32.748Z,0.14
2016-12-13T07:39:17.833Z,0
2016-12-13T07:40:17.851Z,-0.04
2016-12-13T07:41:17.871Z,0.07
2016-12-13T07:42:17.932Z,0.02
2016-12-13T07:43:17.896Z,0.13
2016-12-13T07:44:17.914Z,0.07
2016-12-13T07:45:17.926Z,0.11
2016-12-13T07:46:17.942Z,0.11
2016-12-13T07:47:17.951Z,0.17
2016-12-13T07:48:17.968Z,0.15
2016-12-13T07:49:17.980Z,0.18
2016-12-13T07:50:17.995Z,0.08
2016-12-13T07:51:32.931Z,0.13
2016-12-13T07:52:32.945Z,-0.07
2016-12-13T07:53:32.963Z,0.02
2016-12-13T07:54:18.051Z,0
2016-12-13T07:55:32.984Z,-0.01
2016-12-13T07:56:18.085Z,0.08
2016-12-13T07:57:18.097Z,0.1
2016-12-13T07:58:18.112Z,-0.05
2016-12-13T07:59:18.125Z,0.18
2016-12-13T08:01:18.157Z,0.35
2016-12-13T08:03:18.174Z,0.33
2016-12-13T08:04:18.191Z,0.33
2016-12-13T08:05:18.201Z,0.31
2016-12-13T08:06:18.274Z,0.32
2016-12-13T08:07:33.158Z,0.29
2016-12-13T08:08:18.252Z,0.35
2016-12-13T08:11:18.296Z,0.32
2016-12-13T08:12:18.310Z,0.35
2016-12-13T08:13:18.323Z,0.35
2016-12-13T08:14:18.338Z,0.39
2016-12-13T08:15:18.346Z,0.36
2016-12-13T08:16:18.367Z,0.49
2016-12-13T08:17:18.379Z,0.46
2016-12-13T08:18:18.401Z,0.47
2016-12-13T08:19:18.404Z,0.49
2016-12-13T08:20:18.418Z,0.46
2016-12-13T08:21:18.435Z,0.55
2016-12-13T08:22:18.449Z,0.44
2016-12-13T08:23:18.463Z,0.47
2016-12-13T08:24:18.476Z,0.53
2016-12-13T08:25:33.410Z,0.69
2016-12-13T08:26:33.424Z,0.69
2016-12-13T08:27:18.525Z,0.72
2016-12-13T08:28:18.533Z,0.62
2016-12-13T08:29:18.550Z,0.62
2016-12-13T08:30:18.563Z,0.65
2016-12-13T08:31:18.578Z,0.69
2016-12-13T08:32:18.597Z,0.72
2016-12-13T08:33:18.603Z,0.73
2016-12-13T08:34:18.618Z,0.79
2016-12-13T08:35:18.636Z,0.7
2016-12-13T08:36:18.647Z,0.68
2016-12-13T08:37:18.666Z,0.76
2016-12-13T08:38:18.676Z,0.72
2016-12-13T08:39:33.614Z,0.83
2016-12-13T08:40:18.708Z,0.73
2016-12-13T08:41:33.644Z,0.78
2016-12-13T08:42:18.738Z,0.8
2016-12-13T08:43:18.749Z,0.79
2016-12-13T08:44:18.765Z,0.78
2016-12-13T08:45:18.782Z,0.84
2016-12-13T08:46:18.792Z,0.86
2016-12-13T08:47:34.026Z,0.83
2016-12-13T08:48:18.823Z,0.83
2016-12-13T08:49:18.837Z,0.86
2016-12-13T08:50:18.856Z,0.84
2016-12-13T08:51:18.867Z,0.76
2016-12-13T08:52:18.886Z,0.8
2016-12-13T08:53:18.902Z,0.84
2016-12-13T08:54:18.907Z,0.78
2016-12-13T08:55:18.947Z,0.66
2016-12-13T08:56:18.936Z,0.88
2016-12-13T08:57:33.874Z,0.9
2016-12-13T08:58:19.021Z,0.83
2016-12-13T08:59:18.994Z,0.8
2016-12-13T09:00:19.147Z,0.91
2016-12-13T09:01:19.020Z,0.88
2016-12-13T09:02:19.026Z,0.84
2016-12-13T09:03:19.038Z,0.86
2016-12-13T09:04:19.054Z,0.83
2016-12-13T09:05:19.072Z,0.87
2016-12-13T09:06:19.082Z,0.88
2016-12-13T09:07:19.099Z,0.91
2016-12-13T09:08:19.110Z,1.09
2016-12-13T09:09:19.126Z,0.94
2016-12-13T09:10:19.162Z,1.02
2016-12-13T09:11:19.159Z,0.93
2016-12-13T09:12:19.169Z,1.04
2016-12-13T09:13:34.112Z,1.05
2016-12-13T09:14:19.204Z,1.11
2016-12-13T09:15:19.219Z,1.02
2016-12-13T09:16:19.234Z,1.18
2016-12-13T09:17:19.247Z,1.05
2016-12-13T09:18:19.262Z,1.16
2016-12-13T09:19:19.279Z,1.14
2016-12-13T09:20:19.326Z,1.08
2016-12-13T09:21:19.308Z,1.09
2016-12-13T09:23:19.336Z,1.16
2016-12-13T09:24:19.346Z,1.22
2016-12-13T09:25:19.364Z,1.16
2016-12-13T09:26:19.378Z,1.23
2016-12-13T09:27:19.395Z,1.22
2016-12-13T09:28:34.328Z,1.15
2016-12-13T09:29:34.343Z,1.22
2016-12-13T09:30:19.438Z,1.34
2016-12-13T09:31:19.508Z,1.33
2016-12-13T09:32:19.468Z,1.33
2016-12-13T09:33:19.481Z,1.34
2016-12-13T09:34:19.500Z,1.37
2016-12-13T09:35:19.559Z,1.33
2016-12-13T09:36:19.527Z,1.36
2016-12-13T09:37:19.541Z,1.42
2016-12-13T09:38:19.557Z,1.36
2016-12-13T09:39:19.574Z,1.37
2016-12-13T09:40:19.591Z,1.33
2016-12-13T09:41:19.608Z,1.42
2016-12-13T09:42:19.618Z,1.4
2016-12-13T09:43:19.638Z,1.52
2016-12-13T09:44:19.649Z,1.58
2016-12-13T09:45:19.664Z,1.55
2016-12-13T09:46:19.682Z,1.58
2016-12-13T09:47:19.697Z,1.54
2016-12-13T09:48:19.710Z,1.62
2016-12-13T09:49:19.725Z,1.55
2016-12-13T09:50:19.740Z,1.58
2016-12-13T09:51:19.757Z,1.55
2016-12-13T09:52:19.775Z,1.6
2016-12-13T09:53:19.783Z,1.8
2016-12-13T09:54:19.802Z,1.76
2016-12-13T09:55:19.820Z,1.8
2016-12-13T09:56:21.094Z,1.76
2016-12-13T09:57:19.840Z,1.83
2016-12-13T09:58:19.874Z,1.79
2016-12-13T09:59:19.869Z,1.77
2016-12-13T10:00:34.808Z,1.77
2016-12-13T10:01:30.336Z,1.86
2016-12-13T10:02:19.928Z,1.84
2016-12-13T10:03:19.938Z,1.88
2016-12-13T10:04:20.001Z,1.87
2016-12-13T10:05:19.969Z,1.84
2016-12-13T10:06:19.985Z,1.99
2016-12-13T10:07:19.995Z,2.06
2016-12-13T10:08:20.016Z,2.03
2016-12-13T10:09:20.029Z,1.95
2016-12-13T10:10:20.041Z,2.06
2016-12-13T10:11:20.060Z,2.09
2016-12-13T10:13:20.095Z,2
2016-12-13T10:14:20.135Z,1.99
2016-12-13T10:15:20.127Z,2.18
2016-12-13T10:16:35.056Z,2.07
2016-12-13T10:17:20.159Z,2.1
2016-12-13T10:18:20.169Z,2.1
2016-12-13T10:19:20.190Z,2.16
2016-12-13T10:20:20.200Z,2.21
2016-12-13T10:21:20.214Z,2.3
2016-12-13T10:22:20.563Z,2.2
2016-12-13T10:23:20.244Z,2.25
2016-12-13T10:24:20.263Z,2.31
2016-12-13T10:25:20.278Z,2.31
2016-12-13T10:26:20.288Z,2.46
2016-12-13T10:27:20.308Z,2.46
2016-12-13T10:28:20.327Z,2.39
2016-12-13T10:29:35.263Z,2.45
2016-12-13T10:30:20.403Z,2.41
2016-12-13T10:31:20.371Z,2.42
2016-12-13T10:32:35.310Z,2.39
2016-12-13T10:33:35.320Z,2.48
2016-12-13T10:34:20.420Z,2.45
2016-12-13T10:35:20.434Z,2.43
2016-12-13T10:37:20.467Z,2.48
2016-12-13T10:38:20.527Z,2.53
2016-12-13T10:39:20.844Z,2.56
2016-12-13T10:40:21.018Z,2.52
2016-12-13T10:41:20.627Z,2.59
2016-12-13T10:42:20.641Z,2.56
2016-12-13T10:43:20.605Z,2.64
2016-12-13T10:46:21.053Z,2.67
2016-12-13T10:47:20.625Z,2.72
2016-12-13T10:48:35.562Z,2.71
2016-12-13T10:49:22.262Z,2.79
2016-12-13T10:50:20.870Z,2.78
2016-12-13T10:51:20.681Z,2.81
2016-12-13T10:52:20.755Z,2.87
2016-12-13T10:53:20.712Z,2.85
2016-12-13T10:54:20.732Z,2.93
2016-12-13T10:55:20.747Z,2.89
2016-12-13T10:56:20.766Z,2.97
2016-12-13T10:57:20.776Z,2.93
2016-12-13T10:58:20.796Z,2.95
2016-12-13T10:59:20.818Z,2.97
2016-12-13T11:00:35.804Z,3.02
2016-12-13T11:01:35.817Z,2.92
2016-12-13T11:02:20.864Z,2.96
2016-12-13T11:03:35.800Z,2.99
2016-12-13T11:04:35.814Z,2.99
2016-12-13T11:05:20.915Z,3.03
2016-12-13T11:06:20.928Z,2.97
2016-12-13T11:07:20.943Z,2.92
2016-12-13T11:08:21.009Z,2.95
2016-12-13T11:09:20.974Z,2.92
2016-12-13T11:10:20.994Z,3.05
2016-12-13T11:11:21.003Z,3.06
2016-12-13T11:12:21.023Z,3.1
2016-12-13T11:13:21.038Z,3.05
2016-12-13T11:14:21.052Z,3.06
2016-12-13T11:15:21.069Z,3.11
2016-12-13T11:16:21.088Z,3.11
2016-12-13T11:17:21.104Z,3
2016-12-13T11:18:21.114Z,3.08
2016-12-13T11:19:21.139Z,3.2
2016-12-13T11:20:21.152Z,3.13
2016-12-13T11:21:21.168Z,3.15
2016-12-13T11:22:21.188Z,3.23
2016-12-13T11:23:21.198Z,3.15
2016-12-13T11:24:21.217Z,3.11
2016-12-13T11:25:21.230Z,3.17
2016-12-13T11:26:21.248Z,3.13
2016-12-13T11:27:21.261Z,3.15
2016-12-13T11:28:21.280Z,3.15
2016-12-13T11:31:21.330Z,3.17
2016-12-13T11:32:21.337Z,3.17
2016-12-13T11:33:21.358Z,3.21
2016-12-13T11:34:21.370Z,3.18
2016-12-13T11:35:36.315Z,3.11
2016-12-13T11:36:21.402Z,3.15
2016-12-13T11:37:21.432Z,3.11
2016-12-13T11:38:21.443Z,3.14
2016-12-13T11:39:21.454Z,3.1
2016-12-13T11:40:21.485Z,3.24
2016-12-13T11:41:21.488Z,3.17
2016-12-13T11:42:21.503Z,3.2
2016-12-13T11:43:21.524Z,3.39
2016-12-13T11:44:21.532Z,3.24
2016-12-13T11:46:21.569Z,3.32
2016-12-13T11:47:21.586Z,3.48
2016-12-13T11:48:21.610Z,3.43
2016-12-13T11:49:36.540Z,3.45
2016-12-13T11:51:36.572Z,3.5
2016-12-13T11:52:21.670Z,3.51
2016-12-13T11:53:21.687Z,3.52
2016-12-13T11:54:21.696Z,3.51
2016-12-13T11:55:21.719Z,3.52
2016-12-13T11:56:21.732Z,3.54
2016-12-13T11:57:21.753Z,3.54
2016-12-13T11:58:21.766Z,3.6
2016-12-13T11:59:21.779Z,3.62
2016-12-13T12:00:21.799Z,3.68
2016-12-13T12:01:21.822Z,3.7
2016-12-13T12:02:21.829Z,3.69
2016-12-13T12:03:21.849Z,3.79
2016-12-13T12:04:21.861Z,3.8
2016-12-13T12:06:21.894Z,3.84
2016-12-13T12:07:36.837Z,3.79
2016-12-13T12:08:21.924Z,3.78
2016-12-13T12:09:22.102Z,3.83
2016-12-13T12:10:21.963Z,3.83
2016-12-13T12:11:21.975Z,3.88
2016-12-13T12:12:22.097Z,3.84
2016-12-13T12:13:22.008Z,3.8
2016-12-13T12:14:22.380Z,3.84
2016-12-13T12:15:22.092Z,3.83
2016-12-13T12:16:22.065Z,3.91
2016-12-13T12:17:22.077Z,3.93
2016-12-13T12:18:22.090Z,3.87
2016-12-13T12:19:22.108Z,3.9
2016-12-13T12:21:22.141Z,3.91
2016-12-13T12:23:37.099Z,4.04
2016-12-13T12:24:22.197Z,4
2016-12-13T12:25:22.261Z,3.86
2016-12-13T12:26:22.224Z,4.02
2016-12-13T12:27:22.279Z,3.93
2016-12-13T12:28:22.258Z,3.88
2016-12-13T12:29:22.273Z,3.93
2016-12-13T12:30:22.350Z,3.88
2016-12-13T12:31:22.308Z,4.02
2016-12-13T12:32:22.331Z,3.93
2016-12-13T12:33:22.446Z,3.84
2016-12-13T12:35:37.351Z,3.94
2016-12-13T12:36:22.497Z,3.94
2016-12-13T12:37:22.418Z,3.91
2016-12-13T12:38:37.348Z,3.9
2016-12-13T12:39:22.448Z,3.9
2016-12-13T12:40:22.464Z,3.96
2016-12-13T12:41:22.476Z,3.87
2016-12-13T12:42:22.491Z,3.94
2016-12-13T12:43:22.510Z,4.04
2016-12-13T12:44:22.575Z,3.97
2016-12-13T12:45:22.852Z,3.93
2016-12-13T12:46:22.612Z,3.97
2016-12-13T12:47:22.577Z,3.97
2016-12-13T12:48:22.599Z,4
2016-12-13T12:50:37.554Z,3.97
2016-12-13T12:52:22.708Z,4.04
2016-12-13T12:53:22.674Z,4.05
2016-12-13T12:54:22.699Z,4
2016-12-13T12:55:22.810Z,4.08
2016-12-13T12:56:22.728Z,4.04
2016-12-13T12:57:22.843Z,4.02
2016-12-13T12:58:22.761Z,4.09
2016-12-13T12:59:22.775Z,4
2016-12-13T13:00:22.793Z,4.16
2016-12-13T13:01:22.861Z,4.15
2016-12-13T13:02:22.835Z,4.12
2016-12-13T13:03:23.162Z,4.12
2016-12-13T13:04:22.861Z,4.18
2016-12-13T13:05:22.878Z,4.18
2016-12-13T13:06:22.896Z,4.11
2016-12-13T13:08:22.934Z,4.05
2016-12-13T13:09:23.045Z,4.15
2016-12-13T13:10:37.886Z,4.14
2016-12-13T13:11:22.982Z,4.05
2016-12-13T13:12:23.004Z,4.09
2016-12-13T13:13:23.035Z,4.05
2016-12-13T13:15:23.355Z,3.98
2016-12-13T13:16:23.068Z,4
2016-12-13T13:17:23.086Z,4.02
2016-12-13T13:18:23.095Z,4.05
2016-12-13T13:19:23.120Z,3.96
2016-12-13T13:20:23.133Z,3.97
2016-12-13T13:21:23.145Z,4
2016-12-13T13:22:38.092Z,3.9
2016-12-13T13:23:23.179Z,3.86
2016-12-13T13:24:38.121Z,4.02
2016-12-13T13:25:38.187Z,4
2016-12-13T13:26:38.153Z,4.04
2016-12-13T13:27:23.251Z,4.02
2016-12-13T13:28:23.264Z,4
2016-12-13T13:29:23.281Z,3.91
2016-12-13T13:30:23.303Z,3.91
2016-12-13T13:31:23.311Z,3.93
2016-12-13T13:32:25.337Z,4.04
2016-12-13T13:33:23.450Z,4
2016-12-13T13:34:23.375Z,3.91
2016-12-13T13:35:23.385Z,3.9
2016-12-13T13:36:23.398Z,3.91
2016-12-13T13:38:38.360Z,3.9
2016-12-13T13:39:23.457Z,3.91
2016-12-13T13:40:25.924Z,3.83
2016-12-13T13:41:23.690Z,3.88
2016-12-13T13:42:38.425Z,3.88
2016-12-13T13:43:23.518Z,3.94
2016-12-13T13:44:23.781Z,3.88
2016-12-13T13:45:23.549Z,3.9
2016-12-13T13:46:23.568Z,3.9
2016-12-13T13:47:24.034Z,3.87
2016-12-13T13:48:23.907Z,3.93
2016-12-13T13:49:23.724Z,3.88
2016-12-13T13:50:23.694Z,3.79
2016-12-13T13:51:23.646Z,3.79
2016-12-13T13:52:23.671Z,3.88
2016-12-13T13:53:23.686Z,3.79
2016-12-13T13:54:23.804Z,3.9